Time;durP1;ratioP1;P1;durP2;ratioP2;P2;SDS_P1;SDS_P2;PMS_P1;PMS_P2;Temp;Humidity;BMP_temperature;BMP_pressure;BME280_temperature;BME280_humidity;BME280_pressure;Samples;Min_cycle;Max_cycle;Signal;HPM_P1;HPM_P2
2023/11/27 00:01:50;;;;;;;6.20;2.50;;;4.20;99.90;;;;;;5018581;28;20217;-78
2023/11/27 00:04:16;;;;;;;5.73;2.20;;;4.30;99.90;;;;;;5018789;28;20241;-78
2023/11/27 00:06:41;;;;;;;4.47;2.90;;;4.30;99.90;;;;;;5019246;28;20269;-78
2023/11/27 00:09:07;;;;;;;3.30;2.10;;;4.30;99.90;;;;;;5018756;28;20186;-78
2023/11/27 00:11:33;;;;;;;3.70;2.00;;;4.40;99.90;;;;;;5019083;28;20213;-78
2023/11/27 00:13:59;;;;;;;7.18;2.80;;;4.30;99.90;;;;;;5018554;28;20196;-80
2023/11/27 00:16:24;;;;;;;8.37;2.70;;;4.30;99.90;;;;;;5019135;28;20183;-78
2023/11/27 00:18:52;;;;;;;6.83;2.67;;;4.30;99.90;;;;;;5019201;28;20609;-78
2023/11/27 00:21:18;;;;;;;3.92;2.58;;;4.30;99.90;;;;;;5017085;28;20681;-79
2023/11/27 00:23:44;;;;;;;6.95;2.08;;;4.40;99.90;;;;;;5016746;28;20241;-78
2023/11/27 00:26:09;;;;;;;5.70;2.90;;;4.30;99.90;;;;;;5017926;28;20187;-78
2023/11/27 00:28:35;;;;;;;4.23;2.73;;;4.30;99.90;;;;;;5018268;28;20187;-78
2023/11/27 00:31:01;;;;;;;4.20;2.57;;;4.30;99.90;;;;;;5017948;28;20254;-79
2023/11/27 00:33:26;;;;;;;6.23;2.60;;;4.30;99.90;;;;;;5018386;28;20199;-78
2023/11/27 00:35:52;;;;;;;3.20;2.10;;;4.40;99.90;;;;;;5018813;28;20206;-78
2023/11/27 00:38:17;;;;;;;7.93;3.73;;;4.40;99.90;;;;;;5019544;28;20639;-78
2023/11/27 00:40:46;;;;;;;9.67;3.50;;;4.40;99.90;;;;;;5019187;28;20531;-78
2023/11/27 00:43:11;;;;;;;5.50;3.28;;;4.40;99.90;;;;;;5019128;28;20215;-78
2023/11/27 00:45:37;;;;;;;4.87;3.03;;;4.40;99.90;;;;;;5018596;28;20182;-79
2023/11/27 00:48:03;;;;;;;6.77;3.70;;;4.40;99.90;;;;;;5018364;28;20581;-79
2023/11/27 00:50:29;;;;;;;5.93;3.10;;;4.40;99.90;;;;;;5018627;28;20189;-78
2023/11/27 00:52:54;;;;;;;11.23;3.10;;;4.40;99.90;;;;;;5018905;28;20445;-78
2023/11/27 00:55:20;;;;;;;5.30;4.03;;;4.40;99.90;;;;;;5018913;28;20183;-78
2023/11/27 00:57:45;;;;;;;6.23;4.50;;;4.40;99.90;;;;;;5019370;28;20631;-78
2023/11/27 01:00:12;;;;;;;7.63;3.60;;;4.40;99.90;;;;;;5018662;28;20190;-78
2023/11/27 01:02:38;;;;;;;4.47;3.65;;;4.30;99.90;;;;;;5018495;28;20207;-78
2023/11/27 01:05:06;;;;;;;10.70;3.45;;;4.30;99.90;;;;;;5018728;28;20589;-78
2023/11/27 01:07:31;;;;;;;4.60;3.08;;;4.40;99.90;;;;;;5018275;28;20190;-78
2023/11/27 01:09:57;;;;;;;6.47;3.67;;;4.30;99.90;;;;;;5018655;28;20183;-78
2023/11/27 01:12:23;;;;;;;5.70;3.83;;;4.40;99.90;;;;;;5018081;28;20197;-78
2023/11/27 01:14:48;;;;;;;4.67;3.80;;;4.40;99.90;;;;;;5018374;28;20179;-78
2023/11/27 01:17:14;;;;;;;6.07;4.07;;;4.40;99.90;;;;;;5018705;28;20524;-78
2023/11/27 01:19:39;;;;;;;4.30;3.50;;;4.30;99.90;;;;;;5018405;28;20594;-78
2023/11/27 01:22:05;;;;;;;5.20;3.83;;;4.30;99.90;;;;;;5018136;28;20219;-78
2023/11/27 01:24:30;;;;;;;8.17;4.30;;;4.40;99.90;;;;;;5018680;28;20187;-78
2023/11/27 01:26:56;;;;;;;7.77;4.30;;;4.30;99.90;;;;;;5017891;28;20341;-78
2023/11/27 01:29:21;;;;;;;7.13;4.23;;;4.30;99.90;;;;;;5033719;28;20185;-78
2023/11/27 01:31:49;;;;;;;4.60;4.00;;;4.40;99.90;;;;;;5018243;28;20186;-78
2023/11/27 01:34:15;;;;;;;6.95;4.63;;;4.30;99.90;;;;;;5018043;28;20685;-78
2023/11/27 01:36:40;;;;;;;6.00;4.60;;;4.30;99.90;;;;;;5018260;28;20191;-78
2023/11/27 01:39:06;;;;;;;10.30;5.30;;;4.30;99.90;;;;;;5021222;28;20190;-78
2023/11/27 01:41:31;;;;;;;8.73;4.67;;;4.40;99.90;;;;;;5021835;28;20211;-78
2023/11/27 01:43:57;;;;;;;6.83;4.40;;;4.40;99.90;;;;;;5021859;28;20227;-78
2023/11/27 01:46:25;;;;;;;9.63;5.10;;;4.40;99.90;;;;;;5021699;28;20185;-78
2023/11/27 01:48:55;;;;;;;7.75;5.32;;;4.30;99.90;;;;;;5021835;28;20185;-78
2023/11/27 01:51:28;;;;;;;8.60;4.63;;;4.40;99.90;;;;;;5036850;28;20202;-78
2023/11/27 01:53:57;;;;;;;6.10;4.35;;;4.40;99.90;;;;;;5021599;28;20213;-78
2023/11/27 01:56:24;;;;;;;9.25;3.70;;;4.40;99.90;;;;;;5021174;28;20190;-78
2023/11/27 01:58:50;;;;;;;8.50;5.13;;;4.40;99.90;;;;;;5021657;28;20190;-78
2023/11/27 02:01:17;;;;;;;8.68;5.57;;;4.40;99.90;;;;;;5021716;28;20649;-79
2023/11/27 02:03:43;;;;;;;8.80;5.10;;;4.40;99.90;;;;;;5021407;28;20215;-78
2023/11/27 02:06:09;;;;;;;6.87;5.17;;;4.40;99.90;;;;;;5021775;28;20194;-78
2023/11/27 02:08:35;;;;;;;10.07;5.30;;;4.40;99.90;;;;;;5021071;28;20432;-78
2023/11/27 02:11:00;;;;;;;7.35;4.10;;;4.40;99.90;;;;;;5021460;28;20178;-78
2023/11/27 02:13:26;;;;;;;7.73;4.40;;;4.40;99.90;;;;;;5021165;28;20191;-78
2023/11/27 02:15:52;;;;;;;7.43;4.20;;;4.30;99.90;;;;;;5021228;28;20183;-78
2023/11/27 02:18:19;;;;;;;8.48;5.30;;;4.40;99.90;;;;;;5021489;28;20181;-78
2023/11/27 02:20:45;;;;;;;6.15;4.47;;;4.40;99.90;;;;;;5021524;28;20556;-78
2023/11/27 02:23:15;;;;;;;10.90;5.30;;;4.40;99.90;;;;;;5020844;28;20210;-78
2023/11/27 02:25:41;;;;;;;8.73;5.07;;;4.30;99.90;;;;;;5021731;28;20655;-78
2023/11/27 02:28:07;;;;;;;9.63;5.67;;;4.40;99.90;;;;;;5036838;28;20304;-79
2023/11/27 02:30:32;;;;;;;5.30;4.30;;;4.30;99.90;;;;;;5021499;28;20194;-78
2023/11/27 02:32:58;;;;;;;7.70;4.63;;;4.30;99.90;;;;;;5021595;28;20429;-78
2023/11/27 02:35:23;;;;;;;7.50;4.93;;;4.30;99.90;;;;;;5021156;28;20189;-78
2023/11/27 02:37:49;;;;;;;9.77;5.17;;;4.30;99.90;;;;;;5020659;28;20185;-78
2023/11/27 02:40:16;;;;;;;5.90;4.47;;;4.30;99.90;;;;;;5021050;28;20191;-78
2023/11/27 02:42:42;;;;;;;5.20;4.70;;;4.30;99.90;;;;;;5021202;28;20202;-78
2023/11/27 02:45:11;;;;;;;5.50;4.57;;;4.30;99.90;;;;;;5021188;28;20191;-78
2023/11/27 02:47:37;;;;;;;9.82;4.22;;;4.30;99.90;;;;;;5021318;28;20414;-78
2023/11/27 02:50:05;;;;;;;6.97;4.13;;;4.30;99.90;;;;;;5020710;28;20187;-78
2023/11/27 02:52:31;;;;;;;6.18;3.80;;;4.30;99.90;;;;;;5021260;28;20187;-78
2023/11/27 02:54:57;;;;;;;7.00;4.07;;;4.30;99.90;;;;;;5021388;28;20649;-78
2023/11/27 02:57:23;;;;;;;12.93;4.40;;;4.30;99.90;;;;;;5020973;28;20421;-78
2023/11/27 02:59:49;;;;;;;6.23;4.23;;;4.30;99.90;;;;;;5020654;28;20179;-78
2023/11/27 03:02:15;;;;;;;5.45;4.88;;;4.40;99.90;;;;;;5020667;28;20230;-78
2023/11/27 03:04:42;;;;;;;6.07;4.13;;;4.40;99.90;;;;;;5019922;28;20187;-78
2023/11/27 03:07:08;;;;;;;8.70;5.10;;;4.30;99.90;;;;;;5020655;28;20183;-78
2023/11/27 03:09:34;;;;;;;7.67;4.97;;;4.40;99.90;;;;;;5020847;28;20186;-78
2023/11/27 03:12:03;;;;;;;5.57;4.68;;;4.40;99.90;;;;;;5020761;28;20418;-78
2023/11/27 03:14:29;;;;;;;9.32;4.60;;;4.40;99.90;;;;;;5020404;28;20186;-78
2023/11/27 03:16:55;;;;;;;8.10;4.40;;;4.40;99.90;;;;;;5020707;28;20201;-78
2023/11/27 03:19:21;;;;;;;8.20;4.07;;;4.40;99.90;;;;;;5020337;28;20273;-78
2023/11/27 03:21:47;;;;;;;5.70;4.40;;;4.40;99.90;;;;;;5020488;28;20214;-78
2023/11/27 03:24:13;;;;;;;16.23;5.57;;;4.30;99.90;;;;;;5020269;28;20233;-78
2023/11/27 03:26:38;;;;;;;8.60;5.60;;;4.30;99.90;;;;;;5020752;28;20462;-78
2023/11/27 03:29:04;;;;;;;10.87;5.73;;;4.30;99.90;;;;;;5020509;28;20194;-77
2023/11/27 03:31:30;;;;;;;11.30;5.43;;;4.30;99.90;;;;;;5020481;28;20269;-78
2023/11/27 03:33:57;;;;;;;11.07;5.97;;;4.30;99.90;;;;;;5019868;28;20183;-78
2023/11/27 03:36:23;;;;;;;8.40;6.32;;;4.30;99.90;;;;;;5020738;28;20205;-77
2023/11/27 03:38:48;;;;;;;11.00;5.90;;;4.30;99.90;;;;;;5019873;28;20191;-78
2023/11/27 03:41:21;;;;;;;9.40;5.90;;;4.30;99.90;;;;;;5020519;28;20669;-78
2023/11/27 03:43:50;;;;;;;6.20;4.80;;;4.20;99.90;;;;;;5020274;28;20220;-78
2023/11/27 03:46:16;;;;;;;11.65;5.50;;;4.20;99.90;;;;;;5020122;28;20187;-78
2023/11/27 03:48:42;;;;;;;8.63;5.97;;;4.20;99.90;;;;;;5020422;28;20248;-78
2023/11/27 03:51:08;;;;;;;8.97;6.20;;;4.20;99.90;;;;;;5020726;28;20178;-78
2023/11/27 03:53:35;;;;;;;9.73;5.63;;;4.20;99.90;;;;;;5020252;28;20429;-77
2023/11/27 03:56:01;;;;;;;8.55;5.18;;;4.10;99.90;;;;;;5020533;28;20182;-78
2023/11/27 03:58:26;;;;;;;9.57;5.53;;;4.10;99.90;;;;;;5019854;28;20201;-78
2023/11/27 04:00:55;;;;;;;7.67;5.23;;;4.20;99.90;;;;;;5019496;28;20189;-78
2023/11/27 04:03:20;;;;;;;6.55;5.07;;;4.10;99.90;;;;;;5020068;28;20211;-78
2023/11/27 04:05:47;;;;;;;8.93;5.60;;;4.10;99.90;;;;;;5019753;28;20226;-77
2023/11/27 04:08:13;;;;;;;6.65;5.00;;;4.10;99.90;;;;;;5035497;28;20175;-79
2023/11/27 04:10:38;;;;;;;9.63;6.00;;;4.10;99.90;;;;;;5019965;28;20210;-78
2023/11/27 04:13:04;;;;;;;9.37;5.60;;;4.10;99.90;;;;;;5019934;28;20190;-78
2023/11/27 04:15:30;;;;;;;10.75;5.07;;;4.10;99.90;;;;;;5018722;28;20186;-78
2023/11/27 04:17:57;;;;;;;5.70;4.63;;;4.10;99.90;;;;;;5019320;28;20281;-78
2023/11/27 04:20:22;;;;;;;7.57;5.50;;;4.10;99.90;;;;;;5020082;28;20191;-77
2023/11/27 04:22:48;;;;;;;8.10;4.73;;;4.10;99.90;;;;;;5019713;28;20214;-78
2023/11/27 04:25:13;;;;;;;8.40;5.30;;;4.10;99.90;;;;;;5019680;28;20215;-78
2023/11/27 04:27:39;;;;;;;9.43;5.37;;;4.10;99.90;;;;;;5019252;28;20235;-78
2023/11/27 04:30:05;;;;;;;10.30;4.87;;;4.10;99.90;;;;;;5020109;28;20631;-78
2023/11/27 04:32:32;;;;;;;10.43;5.85;;;4.10;99.90;;;;;;5019350;28;20202;-77
2023/11/27 04:34:58;;;;;;;9.10;5.13;;;4.10;99.90;;;;;;5019783;28;20243;-78
2023/11/27 04:37:23;;;;;;;7.00;4.37;;;4.10;99.90;;;;;;5019196;28;20211;-78
2023/11/27 04:39:51;;;;;;;7.23;4.67;;;4.10;99.90;;;;;;5019526;28;20245;-78
2023/11/27 04:42:20;;;;;;;6.10;4.88;;;4.00;99.90;;;;;;5018292;28;20901;-78
2023/11/27 04:44:46;;;;;;;14.65;7.22;;;4.10;99.90;;;;;;5018706;28;20194;-79
2023/11/27 04:47:12;;;;;;;13.33;6.10;;;4.10;99.90;;;;;;5018507;28;20265;-78
2023/11/27 04:49:37;;;;;;;13.00;5.20;;;4.00;99.90;;;;;;5017937;28;20187;-79
2023/11/27 04:52:04;;;;;;;11.53;5.23;;;4.00;99.90;;;;;;5018589;28;20178;-79
2023/11/27 04:54:30;;;;;;;12.35;6.55;;;4.00;99.90;;;;;;5017412;28;20190;-79
2023/11/27 04:56:56;;;;;;;11.32;7.10;;;4.00;99.90;;;;;;5018859;28;20193;-79
2023/11/27 04:59:22;;;;;;;7.95;5.57;;;3.90;99.90;;;;;;5017463;28;20229;-80
2023/11/27 05:01:47;;;;;;;7.83;4.80;;;3.90;99.90;;;;;;5017862;28;20188;-79
2023/11/27 05:04:17;;;;;;;11.07;5.37;;;3.90;99.90;;;;;;5018117;28;20194;-79
2023/11/27 05:06:44;;;;;;;7.43;6.03;;;3.80;99.90;;;;;;5017722;28;20193;-79
2023/11/27 05:09:10;;;;;;;6.40;4.90;;;3.90;99.90;;;;;;5018053;28;20218;-79
2023/11/27 05:11:37;;;;;;;8.10;5.20;;;3.80;99.90;;;;;;5018760;28;20695;-79
2023/11/27 05:14:03;;;;;;;5.60;5.00;;;3.80;99.90;;;;;;5022001;28;20206;-79
2023/11/27 05:16:28;;;;;;;9.60;4.97;;;3.80;99.90;;;;;;5021267;28;20178;-79
2023/11/27 05:18:54;;;;;;;8.27;5.00;;;3.80;99.90;;;;;;5021808;28;20179;-79
2023/11/27 05:21:20;;;;;;;8.13;5.77;;;3.80;99.90;;;;;;5021239;28;20189;-80
2023/11/27 05:23:45;;;;;;;10.33;4.97;;;3.70;99.90;;;;;;5021734;28;20210;-80
2023/11/27 05:26:11;;;;;;;8.17;5.20;;;3.70;99.90;;;;;;5021367;28;20199;-79
2023/11/27 05:28:38;;;;;;;6.65;4.72;;;3.70;99.90;;;;;;5021077;28;20242;-79
2023/11/27 05:31:07;;;;;;;7.43;5.35;;;3.70;99.90;;;;;;5021281;28;20682;-79
2023/11/27 05:33:33;;;;;;;13.60;5.13;;;3.70;99.90;;;;;;5020855;28;20178;-80
2023/11/27 05:36:00;;;;;;;10.25;5.10;;;3.70;99.90;;;;;;5021255;28;20600;-80
2023/11/27 05:38:26;;;;;;;6.68;5.00;;;3.70;99.90;;;;;;5035286;28;20275;-80
2023/11/27 05:40:51;;;;;;;6.63;4.70;;;3.70;99.90;;;;;;5020597;28;20222;-80
2023/11/27 05:43:17;;;;;;;8.47;5.30;;;3.70;99.90;;;;;;5020944;28;20869;-81
2023/11/27 05:45:43;;;;;;;8.93;4.90;;;3.70;99.90;;;;;;5019694;28;20662;-81
2023/11/27 05:48:09;;;;;;;11.30;5.70;;;3.70;99.90;;;;;;5020711;28;20182;-81
2023/11/27 05:50:41;;;;;;;5.83;4.70;;;3.70;99.90;;;;;;5020284;28;20189;-81
2023/11/27 05:53:10;;;;;;;10.10;4.70;;;3.70;99.90;;;;;;5020503;28;20174;-80
2023/11/27 05:55:36;;;;;;;10.23;4.90;;;3.60;99.90;;;;;;5019772;28;20213;-81
2023/11/27 05:58:03;;;;;;;6.50;4.90;;;3.70;99.90;;;;;;5020095;28;20202;-80
2023/11/27 06:00:32;;;;;;;5.80;5.25;;;3.60;99.90;;;;;;5019224;28;20657;-82
2023/11/27 06:02:58;;;;;;;10.25;5.63;;;3.70;99.90;;;;;;5020429;28;20206;-80
2023/11/27 06:05:24;;;;;;;6.03;5.18;;;3.60;99.90;;;;;;5019828;28;20548;-81
2023/11/27 06:07:49;;;;;;;8.63;4.60;;;3.60;99.90;;;;;;5020444;28;20198;-80
2023/11/27 06:10:16;;;;;;;7.40;4.50;;;3.50;99.90;;;;;;5019941;28;20417;-80
2023/11/27 06:12:42;;;;;;;7.82;3.90;;;3.50;99.90;;;;;;5020932;28;20193;-79
2023/11/27 06:15:08;;;;;;;6.13;4.03;;;3.50;99.90;;;;;;5020464;28;20261;-79
2023/11/27 06:17:33;;;;;;;8.27;4.80;;;3.50;99.90;;;;;;5020535;28;20432;-79
2023/11/27 06:19:59;;;;;;;12.30;3.90;;;3.50;99.90;;;;;;5020566;28;20413;-79
2023/11/27 06:22:26;;;;;;;7.17;4.23;;;3.50;99.90;;;;;;5019387;28;20280;-80
2023/11/27 06:24:51;;;;;;;5.38;4.65;;;3.50;99.90;;;;;;5019747;28;20210;-79
2023/11/27 06:27:17;;;;;;;6.67;4.23;;;3.50;99.90;;;;;;5020214;28;20721;-80
2023/11/27 06:29:43;;;;;;;9.13;4.57;;;3.50;99.90;;;;;;5020106;28;20197;-80
2023/11/27 06:32:08;;;;;;;7.60;5.40;;;3.50;99.90;;;;;;5020444;28;20190;-80
2023/11/27 06:34:34;;;;;;;7.40;4.50;;;3.40;99.90;;;;;;5019816;28;20413;-81
2023/11/27 06:36:59;;;;;;;5.87;4.27;;;3.40;99.90;;;;;;5019779;28;20186;-80
2023/11/27 06:39:28;;;;;;;5.97;4.33;;;3.40;99.90;;;;;;5020189;28;20186;-81
2023/11/27 06:41:55;;;;;;;5.65;3.58;;;3.50;99.90;;;;;;5019640;28;20174;-80
2023/11/27 06:44:20;;;;;;;9.43;4.23;;;3.50;99.90;;;;;;5019656;28;20212;-81
2023/11/27 06:46:46;;;;;;;11.37;4.80;;;3.50;99.90;;;;;;5019411;28;20187;-82
2023/11/27 06:49:12;;;;;;;11.03;4.40;;;3.50;99.90;;;;;;5019236;28;20187;-81
2023/11/27 06:51:38;;;;;;;7.53;5.05;;;3.50;99.90;;;;;;5034018;28;20181;-82
2023/11/27 06:54:04;;;;;;;9.35;4.57;;;3.50;99.90;;;;;;5035213;28;20248;-82
2023/11/27 06:56:33;;;;;;;4.13;3.73;;;3.50;99.90;;;;;;5019190;28;20269;-82
2023/11/27 06:59:01;;;;;;;12.77;5.72;;;3.50;99.90;;;;;;5034173;28;20186;-81
2023/11/27 07:01:28;;;;;;;9.77;5.13;;;3.50;99.90;;;;;;5019144;28;20175;-82
2023/11/27 07:03:54;;;;;;;9.15;4.25;;;3.50;99.90;;;;;;5019669;28;20203;-81
2023/11/27 07:06:20;;;;;;;8.75;4.80;;;3.60;99.90;;;;;;5019038;28;20189;-82
2023/11/27 07:08:45;;;;;;;6.10;4.60;;;3.50;99.90;;;;;;5018917;28;20190;-82
2023/11/27 07:11:11;;;;;;;6.13;4.73;;;3.60;99.90;;;;;;5017652;28;20232;-82
2023/11/27 07:13:36;;;;;;;9.93;5.80;;;3.60;99.90;;;;;;5033995;28;20197;-82
2023/11/27 07:16:02;;;;;;;6.30;5.70;;;3.50;99.90;;;;;;5035297;28;20656;-79
2023/11/27 07:18:31;;;;;;;7.73;6.57;;;3.50;99.90;;;;;;5019404;28;20188;-81
2023/11/27 07:20:57;;;;;;;7.07;4.85;;;3.60;99.90;;;;;;5018505;28;20422;-80
2023/11/27 07:23:24;;;;;;;5.13;4.47;;;3.50;99.90;;;;;;5018420;28;20216;-81
2023/11/27 07:25:50;;;;;;;5.13;4.30;;;3.50;99.90;;;;;;5018092;28;20210;-82
2023/11/27 07:28:16;;;;;;;5.67;4.70;;;3.50;99.90;;;;;;5018538;28;20237;-81
2023/11/27 07:30:43;;;;;;;4.95;4.55;;;3.50;99.90;;;;;;5017419;28;20657;-81
2023/11/27 07:33:09;;;;;;;6.22;4.75;;;3.50;99.90;;;;;;5016291;28;20574;-81
2023/11/27 07:35:34;;;;;;;6.95;4.25;;;3.50;99.90;;;;;;5015856;28;20270;-82
2023/11/27 07:38:01;;;;;;;7.40;4.23;;;3.50;99.90;;;;;;5018382;28;20210;-81
2023/11/27 07:40:27;;;;;;;5.43;3.95;;;3.50;99.90;;;;;;5016300;28;20183;-83
2023/11/27 07:42:54;;;;;;;8.55;4.95;;;3.50;99.90;;;;;;5018087;28;20214;-82
2023/11/27 07:45:20;;;;;;;5.07;4.20;;;3.50;99.90;;;;;;5018529;28;20584;-81
2023/11/27 07:47:46;;;;;;;3.60;2.97;;;3.50;99.90;;;;;;5017647;28;20183;-82
2023/11/27 07:50:12;;;;;;;5.75;4.20;;;3.50;99.90;;;;;;5017315;28;20948;-81
2023/11/27 07:52:38;;;;;;;4.30;3.13;;;3.50;99.90;;;;;;5017992;28;20203;-82
2023/11/27 07:55:07;;;;;;;5.17;3.60;;;3.50;99.90;;;;;;5016676;28;20209;-82
2023/11/27 07:57:33;;;;;;;6.38;3.47;;;3.50;99.90;;;;;;5017164;28;20188;-82
2023/11/27 08:00:00;;;;;;;5.88;3.17;;;3.50;99.90;;;;;;5017856;28;20185;-81
2023/11/27 08:02:25;;;;;;;3.35;3.03;;;3.50;99.90;;;;;;5017171;28;20669;-81
2023/11/27 08:04:51;;;;;;;3.60;2.80;;;3.50;99.90;;;;;;5017273;28;20225;-82
2023/11/27 08:07:16;;;;;;;3.67;3.37;;;3.50;99.90;;;;;;5017551;28;20627;-81
2023/11/27 08:09:46;;;;;;;3.57;3.10;;;3.50;99.90;;;;;;5017402;28;20179;-82
2023/11/27 08:12:13;;;;;;;4.13;3.10;;;3.50;99.90;;;;;;5016277;28;20598;-82
2023/11/27 08:14:40;;;;;;;3.15;2.53;;;3.50;99.90;;;;;;5017592;28;20324;-81
2023/11/27 08:17:06;;;;;;;4.50;2.22;;;3.50;99.90;;;;;;5017453;28;20186;-82
2023/11/27 08:19:32;;;;;;;3.13;2.07;;;3.60;99.90;;;;;;5017716;28;20182;-82
2023/11/27 08:22:03;;;;;;;4.25;2.15;;;3.50;99.90;;;;;;5016746;28;20182;-81
2023/11/27 08:24:30;;;;;;;3.88;2.20;;;3.60;99.90;;;;;;5016286;28;20171;-82
2023/11/27 08:26:57;;;;;;;3.38;2.33;;;3.60;99.90;;;;;;5017480;28;20231;-82
2023/11/27 08:29:25;;;;;;;6.40;3.35;;;3.60;99.90;;;;;;5017011;28;20626;-82
2023/11/27 08:31:53;;;;;;;2.42;2.20;;;3.60;99.90;;;;;;5015694;28;20242;-82
2023/11/27 08:34:19;;;;;;;3.00;1.90;;;3.60;99.90;;;;;;5017463;28;20184;-81
2023/11/27 08:36:44;;;;;;;2.00;1.83;;;3.60;99.90;;;;;;5017204;28;20218;-82
2023/11/27 08:39:11;;;;;;;2.27;2.07;;;3.70;99.90;;;;;;5016936;28;20182;-81
2023/11/27 08:41:37;;;;;;;1.52;1.25;;;3.70;99.90;;;;;;5017177;28;20180;-81
2023/11/27 08:44:03;;;;;;;3.30;1.42;;;3.70;99.90;;;;;;5017606;28;20244;-81
2023/11/27 08:46:29;;;;;;;2.65;1.55;;;3.70;99.90;;;;;;5016319;28;20194;-81
2023/11/27 08:48:56;;;;;;;2.60;1.60;;;3.70;99.90;;;;;;5017618;28;20181;-81
2023/11/27 08:51:24;;;;;;;1.52;1.42;;;3.70;99.90;;;;;;5016171;28;20417;-81
2023/11/27 08:53:50;;;;;;;1.52;1.17;;;3.70;99.90;;;;;;5016837;28;20206;-81
2023/11/27 08:56:17;;;;;;;1.60;1.33;;;3.70;99.90;;;;;;5017087;28;20251;-82
2023/11/27 08:58:43;;;;;;;1.45;1.13;;;3.70;99.90;;;;;;5015367;28;20438;-82
2023/11/27 09:01:09;;;;;;;4.80;2.53;;;3.60;99.90;;;;;;5017051;28;20182;-82
2023/11/27 09:03:35;;;;;;;2.43;1.63;;;3.70;99.90;;;;;;5016118;28;20245;-82
2023/11/27 09:06:00;;;;;;;1.20;1.10;;;3.70;99.90;;;;;;5016938;28;20216;-82
2023/11/27 09:08:26;;;;;;;1.30;1.20;;;3.70;99.90;;;;;;5015632;28;20199;-82
2023/11/27 09:10:52;;;;;;;2.70;1.17;;;3.70;99.90;;;;;;5015572;28;20217;-82
2023/11/27 09:13:18;;;;;;;1.73;1.10;;;3.70;99.90;;;;;;5017153;28;20555;-82
2023/11/27 09:15:44;;;;;;;1.57;0.90;;;3.80;99.90;;;;;;5015253;28;20190;-82
2023/11/27 09:18:09;;;;;;;1.10;0.90;;;3.70;99.90;;;;;;5015604;28;20188;-82
2023/11/27 09:20:35;;;;;;;1.13;0.90;;;3.70;99.90;;;;;;5015106;28;20619;-84
2023/11/27 09:23:01;;;;;;;1.03;0.80;;;3.70;99.90;;;;;;4999416;28;20211;-82
2023/11/27 09:25:26;;;;;;;4.40;1.10;;;3.80;99.90;;;;;;5017169;28;20601;-82
2023/11/27 09:27:52;;;;;;;2.97;1.87;;;3.70;99.90;;;;;;5015525;28;20492;-82
2023/11/27 09:30:18;;;;;;;1.60;1.37;;;3.70;99.90;;;;;;5019265;28;20210;-82
2023/11/27 09:32:43;;;;;;;2.65;1.80;;;3.80;99.90;;;;;;5017103;28;20182;-81
2023/11/27 09:35:15;;;;;;;1.83;1.60;;;3.80;99.90;;;;;;5016404;28;20243;-82
2023/11/27 09:37:41;;;;;;;4.40;1.70;;;3.80;99.90;;;;;;5016202;28;20255;-83
2023/11/27 09:40:08;;;;;;;2.05;1.45;;;3.80;99.90;;;;;;5016142;28;20186;-83
2023/11/27 09:42:37;;;;;;;2.25;1.40;;;3.70;99.90;;;;;;5015787;28;20209;-84
2023/11/27 09:45:04;;;;;;;1.27;1.17;;;3.80;99.90;;;;;;5016764;28;20178;-83
2023/11/27 09:47:31;;;;;;;1.13;1.00;;;3.70;99.90;;;;;;5016622;28;20182;-83
2023/11/27 09:49:59;;;;;;;1.20;1.08;;;3.70;99.90;;;;;;4998419;28;20209;-83
2023/11/27 09:52:31;;;;;;;1.85;1.40;;;3.80;99.90;;;;;;5019569;28;20179;-82
2023/11/27 09:55:04;;;;;;;1.80;1.40;;;3.80;99.90;;;;;;5015728;28;20662;-84
2023/11/27 09:57:32;;;;;;;1.30;1.20;;;3.70;99.90;;;;;;5014845;28;20631;-83
2023/11/27 10:00:00;;;;;;;1.17;1.00;;;3.80;99.90;;;;;;5017892;28;20693;-83
2023/11/27 10:02:25;;;;;;;1.23;1.02;;;3.80;99.90;;;;;;5019783;28;20297;-83
2023/11/27 10:04:53;;;;;;;1.60;1.10;;;3.80;99.90;;;;;;5002113;28;20221;-83
2023/11/27 10:07:21;;;;;;;1.52;1.27;;;3.80;99.90;;;;;;5019836;28;20190;-82
2023/11/27 10:09:51;;;;;;;1.90;1.38;;;3.80;99.90;;;;;;5018260;28;20207;-84
2023/11/27 10:12:28;;;;;;;2.20;1.10;;;3.80;99.90;;;;;;5019449;28;20236;-83
2023/11/27 10:14:54;;;;;;;1.90;1.40;;;3.80;99.90;;;;;;5021951;28;20541;-83
2023/11/27 10:17:21;;;;;;;1.88;1.23;;;3.80;99.90;;;;;;5018506;28;20590;-83
2023/11/27 10:19:50;;;;;;;2.00;1.55;;;3.90;99.90;;;;;;5018172;28;20199;-83
2023/11/27 10:22:16;;;;;;;3.70;1.50;;;3.80;99.90;;;;;;5018646;28;20246;-83
2023/11/27 10:24:44;;;;;;;2.20;1.20;;;3.80;99.90;;;;;;5019593;28;20194;-83
2023/11/27 10:27:09;;;;;;;3.05;1.30;;;3.90;99.90;;;;;;5019444;28;20229;-83
2023/11/27 10:29:35;;;;;;;3.10;1.40;;;3.90;99.90;;;;;;5018011;28;20627;-83
2023/11/27 10:32:02;;;;;;;2.13;1.93;;;3.90;99.90;;;;;;5019136;28;20588;-83
2023/11/27 10:34:32;;;;;;;1.52;1.27;;;3.90;99.90;;;;;;5019316;28;20186;-83
2023/11/27 10:37:00;;;;;;;2.85;1.60;;;3.90;99.90;;;;;;5018029;28;20205;-83
2023/11/27 10:39:32;;;;;;;2.03;1.40;;;3.90;99.90;;;;;;5018222;28;20175;-83
2023/11/27 10:41:58;;;;;;;1.70;1.40;;;3.90;99.90;;;;;;5018936;28;20516;-83
2023/11/27 10:44:25;;;;;;;2.63;1.92;;;3.90;99.90;;;;;;5018888;28;20179;-83
2023/11/27 10:46:53;;;;;;;1.70;1.40;;;4.00;99.90;;;;;;5018904;28;20179;-83
2023/11/27 10:49:20;;;;;;;1.67;1.33;;;4.00;99.90;;;;;;5019834;28;20175;-83
2023/11/27 10:51:47;;;;;;;2.20;1.35;;;3.90;99.90;;;;;;5019098;28;20201;-84
2023/11/27 10:54:14;;;;;;;2.20;1.60;;;3.90;99.90;;;;;;5018886;28;20273;-83
2023/11/27 10:56:45;;;;;;;1.55;1.45;;;3.90;99.90;;;;;;5017193;28;20210;-84
2023/11/27 10:59:13;;;;;;;2.65;1.85;;;3.90;99.90;;;;;;5018692;28;20580;-83
2023/11/27 11:01:42;;;;;;;1.77;1.48;;;3.90;99.90;;;;;;5019200;28;20687;-83
2023/11/27 11:04:32;;;;;;;2.47;1.45;;;3.90;99.90;;;;;;5021356;28;20207;-84
2023/11/27 11:07:02;;;;;;;3.05;1.40;;;3.90;99.90;;;;;;5017071;28;20594;-84
2023/11/27 11:09:29;;;;;;;2.58;1.20;;;4.00;99.90;;;;;;5016974;28;20181;-83
2023/11/27 11:11:55;;;;;;;1.50;1.25;;;3.90;99.90;;;;;;5001019;28;20668;-83
2023/11/27 11:14:24;;;;;;;1.70;1.00;;;4.00;99.90;;;;;;5016931;28;20186;-83
2023/11/27 11:17:31;;;;;;;1.65;1.50;;;3.90;99.90;;;;;;5016633;28;20185;-83
2023/11/27 11:20:33;;;;;;;1.13;0.90;;;3.90;99.90;;;;;;4957327;29;20180;-83
2023/11/27 11:23:14;;;;;;;1.40;1.20;;;4.00;99.90;;;;;;5016753;28;20315;-83
2023/11/27 11:25:49;;;;;;;1.20;1.10;;;4.00;99.90;;;;;;5017962;28;20182;-84
2023/11/27 11:28:39;;;;;;;1.98;1.15;;;4.00;99.90;;;;;;5016767;28;20237;-83
2023/11/27 11:31:33;;;;;;;2.35;1.15;;;4.00;99.90;;;;;;5017958;28;20206;-83
2023/11/27 11:34:00;;;;;;;2.00;1.80;;;4.10;99.90;;;;;;5017171;28;20245;-83
2023/11/27 11:36:33;;;;;;;2.55;1.30;;;4.10;99.90;;;;;;5000867;28;20523;-83
2023/11/27 11:38:59;;;;;;;1.60;1.00;;;4.10;99.90;;;;;;5017114;28;20627;-83
2023/11/27 11:41:28;;;;;;;1.33;1.20;;;4.10;99.90;;;;;;5017806;28;20175;-83
2023/11/27 11:43:57;;;;;;;1.25;1.00;;;4.10;99.90;;;;;;5000678;28;20233;-83
2023/11/27 11:46:26;;;;;;;1.83;1.40;;;4.10;99.90;;;;;;5017816;28;20221;-83
2023/11/27 11:48:57;;;;;;;1.77;1.40;;;4.10;99.90;;;;;;5016593;28;20175;-82
2023/11/27 11:51:26;;;;;;;1.60;1.30;;;4.10;99.90;;;;;;5017924;28;20183;-83
2023/11/27 11:53:53;;;;;;;1.27;1.15;;;4.10;99.90;;;;;;5017314;28;20248;-83
2023/11/27 11:56:22;;;;;;;1.50;1.40;;;4.10;99.90;;;;;;5016521;28;20178;-83
2023/11/27 11:58:57;;;;;;;1.08;0.98;;;4.10;99.90;;;;;;5017581;28;20175;-83
2023/11/27 12:01:32;;;;;;;1.65;1.50;;;4.10;99.90;;;;;;5018314;28;20177;-83
2023/11/27 12:04:05;;;;;;;1.90;1.50;;;4.10;99.90;;;;;;5017219;28;20237;-83
2023/11/27 12:06:32;;;;;;;1.88;1.42;;;4.10;99.90;;;;;;5016265;28;20540;-83
2023/11/27 12:08:59;;;;;;;2.47;1.83;;;4.10;99.90;;;;;;5022142;28;20189;-84
2023/11/27 12:11:30;;;;;;;1.83;1.38;;;4.10;99.90;;;;;;5016620;28;20175;-83
2023/11/27 12:13:57;;;;;;;3.00;1.80;;;4.10;99.90;;;;;;5016321;28;20171;-83
2023/11/27 12:16:22;;;;;;;2.97;1.50;;;4.10;99.90;;;;;;5015840;28;20183;-83
2023/11/27 12:18:50;;;;;;;2.60;2.07;;;4.10;99.90;;;;;;5016598;28;20183;-83
2023/11/27 12:21:22;;;;;;;1.90;1.70;;;4.00;99.90;;;;;;5016678;28;20476;-82
2023/11/27 12:23:49;;;;;;;2.10;1.33;;;4.10;99.90;;;;;;4999908;28;20214;-83
2023/11/27 12:26:23;;;;;;;1.85;1.50;;;4.10;99.90;;;;;;5017061;28;20242;-83
2023/11/27 12:28:58;;;;;;;4.85;1.70;;;4.10;99.90;;;;;;5016306;28;20200;-82
2023/11/27 12:31:27;;;;;;;2.20;1.60;;;4.10;99.90;;;;;;5015809;28;20194;-83
2023/11/27 12:33:53;;;;;;;1.75;1.52;;;4.10;99.90;;;;;;5000193;28;20179;-83
2023/11/27 12:36:22;;;;;;;1.80;1.13;;;4.10;99.90;;;;;;5015796;28;20205;-83
2023/11/27 12:38:52;;;;;;;1.90;1.23;;;4.10;99.90;;;;;;5015554;28;20185;-82
2023/11/27 12:41:29;;;;;;;2.75;1.33;;;4.20;99.90;;;;;;5017541;28;20175;-83
2023/11/27 12:44:18;;;;;;;1.48;1.15;;;4.20;99.90;;;;;;5016773;28;20202;-83
2023/11/27 12:46:49;;;;;;;2.10;1.20;;;4.10;99.90;;;;;;5017110;28;20618;-84
2023/11/27 12:49:19;;;;;;;6.60;1.40;;;4.20;99.90;;;;;;5017111;28;20190;-82
2023/11/27 12:51:46;;;;;;;2.60;1.67;;;4.10;99.90;;;;;;5016692;28;20175;-83
2023/11/27 12:54:20;;;;;;;1.55;1.45;;;4.10;99.90;;;;;;5015356;28;20214;-83
2023/11/27 12:56:56;;;;;;;1.63;1.38;;;4.10;99.90;;;;;;5015478;28;20543;-84